sensor_id;sensor_type;location;lat;lon;timestamp;pressure;altitude;pressure_sealevel;temperature;humidity
72118;BME280;59992;47.490;8.736;2023-03-01T00:00:21;97075.90;;;-0.21;77.36
72118;BME280;59992;47.490;8.736;2023-03-01T00:02:51;97069.32;;;-0.20;76.67
72118;BME280;59992;47.490;8.736;2023-03-01T00:05:20;97067.48;;;-0.18;76.62
72118;BME280;59992;47.490;8.736;2023-03-01T00:07:53;97067.35;;;-0.15;77.22
72118;BME280;59992;47.490;8.736;2023-03-01T00:10:23;97068.42;;;-0.11;77.07
72118;BME280;59992;47.490;8.736;2023-03-01T00:12:52;97066.66;;;-0.07;76.61
72118;BME280;59992;47.490;8.736;2023-03-01T00:15:23;97065.21;;;-0.07;76.11
72118;BME280;59992;47.490;8.736;2023-03-01T00:17:53;97068.48;;;-0.06;76.56
72118;BME280;59992;47.490;8.736;2023-03-01T00:20:22;97063.05;;;-0.06;76.78
72118;BME280;59992;47.490;8.736;2023-03-01T00:22:52;97058.65;;;-0.04;76.89
72118;BME280;59992;47.490;8.736;2023-03-01T00:25:22;97054.69;;;-0.03;77.43
72118;BME280;59992;47.490;8.736;2023-03-01T00:27:52;97054.41;;;-0.02;77.01
72118;BME280;59992;47.490;8.736;2023-03-01T00:30:21;97051.05;;;-0.04;76.71
72118;BME280;59992;47.490;8.736;2023-03-01T00:32:51;97054.52;;;-0.06;76.79
72118;BME280;59992;47.490;8.736;2023-03-01T00:35:20;97046.84;;;-0.06;77.16
72118;BME280;59992;47.490;8.736;2023-03-01T00:37:50;97045.41;;;-0.08;77.59
72118;BME280;59992;47.490;8.736;2023-03-01T00:40:26;97046.27;;;-0.10;78.06
72118;BME280;59992;47.490;8.736;2023-03-01T00:42:56;97047.30;;;-0.12;78.37
72118;BME280;59992;47.490;8.736;2023-03-01T00:45:26;97044.33;;;-0.12;78.48
72118;BME280;59992;47.490;8.736;2023-03-01T00:47:56;97039.29;;;-0.13;78.57
72118;BME280;59992;47.490;8.736;2023-03-01T00:50:26;97039.92;;;-0.11;78.65
72118;BME280;59992;47.490;8.736;2023-03-01T00:52:56;97034.16;;;-0.08;78.35
72118;BME280;59992;47.490;8.736;2023-03-01T00:55:26;97034.73;;;-0.05;77.58
72118;BME280;59992;47.490;8.736;2023-03-01T00:57:56;97034.70;;;-0.05;77.54
72118;BME280;59992;47.490;8.736;2023-03-01T01:00:25;97031.41;;;-0.04;77.76
72118;BME280;59992;47.490;8.736;2023-03-01T01:02:56;97026.88;;;-0.04;78.07
72118;BME280;59992;47.490;8.736;2023-03-01T01:05:25;97025.86;;;0.01;77.72
72118;BME280;59992;47.490;8.736;2023-03-01T01:07:55;97026.20;;;0.04;77.44
72118;BME280;59992;47.490;8.736;2023-03-01T01:10:24;97022.66;;;0.03;77.78
72118;BME280;59992;47.490;8.736;2023-03-01T01:12:54;97020.47;;;0.04;77.84
72118;BME280;59992;47.490;8.736;2023-03-01T01:15:23;97020.91;;;0.06;77.56
72118;BME280;59992;47.490;8.736;2023-03-01T01:17:53;97016.96;;;0.05;77.98
72118;BME280;59992;47.490;8.736;2023-03-01T01:20:22;97015.91;;;0.05;77.42
72118;BME280;59992;47.490;8.736;2023-03-01T01:22:52;97015.48;;;0.02;77.43
72118;BME280;59992;47.490;8.736;2023-03-01T01:25:22;97013.90;;;0.02;78.04
72118;BME280;59992;47.490;8.736;2023-03-01T01:27:53;97011.84;;;0.01;77.60
72118;BME280;59992;47.490;8.736;2023-03-01T01:30:23;97006.94;;;-0.02;77.64
72118;BME280;59992;47.490;8.736;2023-03-01T01:32:52;97000.77;;;0.00;77.71
72118;BME280;59992;47.490;8.736;2023-03-01T01:35:23;96995.30;;;-0.01;78.03
72118;BME280;59992;47.490;8.736;2023-03-01T01:37:53;96992.81;;;-0.02;78.61
72118;BME280;59992;47.490;8.736;2023-03-01T01:40:22;96994.89;;;-0.01;78.99
72118;BME280;59992;47.490;8.736;2023-03-01T01:42:51;96995.39;;;0.01;79.06
72118;BME280;59992;47.490;8.736;2023-03-01T01:45:29;96990.77;;;0.03;78.54
72118;BME280;59992;47.490;8.736;2023-03-01T01:48:02;96991.83;;;0.05;77.95
72118;BME280;59992;47.490;8.736;2023-03-01T01:50:34;96985.20;;;0.05;77.80
72118;BME280;59992;47.490;8.736;2023-03-01T01:53:11;96983.59;;;0.07;78.06
72118;BME280;59992;47.490;8.736;2023-03-01T01:55:44;96982.09;;;0.09;77.91
72118;BME280;59992;47.490;8.736;2023-03-01T01:58:17;96979.52;;;0.11;77.26
72118;BME280;59992;47.490;8.736;2023-03-01T02:00:48;96983.06;;;0.13;77.50
72118;BME280;59992;47.490;8.736;2023-03-01T02:03:22;96978.14;;;0.11;77.50
72118;BME280;59992;47.490;8.736;2023-03-01T02:06:00;96979.64;;;0.12;77.40
72118;BME280;59992;47.490;8.736;2023-03-01T02:08:35;96970.87;;;0.13;77.79
72118;BME280;59992;47.490;8.736;2023-03-01T02:11:06;96970.05;;;0.16;77.29
72118;BME280;59992;47.490;8.736;2023-03-01T02:13:37;96963.42;;;0.16;77.32
72118;BME280;59992;47.490;8.736;2023-03-01T02:16:10;96960.41;;;0.18;76.61
72118;BME280;59992;47.490;8.736;2023-03-01T02:18:41;96954.36;;;0.12;77.40
72118;BME280;59992;47.490;8.736;2023-03-01T02:21:30;96960.34;;;0.16;76.71
72118;BME280;59992;47.490;8.736;2023-03-01T02:24:08;96957.17;;;0.20;76.42
72118;BME280;59992;47.490;8.736;2023-03-01T02:26:42;96949.01;;;0.22;76.04
72118;BME280;59992;47.490;8.736;2023-03-01T02:29:14;96948.45;;;0.24;75.46
72118;BME280;59992;47.490;8.736;2023-03-01T02:31:44;96944.68;;;0.25;75.34
72118;BME280;59992;47.490;8.736;2023-03-01T02:34:16;96941.24;;;0.25;74.52
72118;BME280;59992;47.490;8.736;2023-03-01T02:36:49;96933.59;;;0.27;74.80
72118;BME280;59992;47.490;8.736;2023-03-01T02:39:23;96932.63;;;0.28;74.66
72118;BME280;59992;47.490;8.736;2023-03-01T02:41:56;96933.46;;;0.32;74.56
72118;BME280;59992;47.490;8.736;2023-03-01T02:44:26;96934.59;;;0.33;73.99
72118;BME280;59992;47.490;8.736;2023-03-01T02:46:57;96931.77;;;0.34;73.54
72118;BME280;59992;47.490;8.736;2023-03-01T02:49:32;96933.93;;;0.35;73.84
72118;BME280;59992;47.490;8.736;2023-03-01T02:52:33;96934.64;;;0.37;73.87
72118;BME280;59992;47.490;8.736;2023-03-01T02:55:06;96935.52;;;0.39;73.93
72118;BME280;59992;47.490;8.736;2023-03-01T02:57:40;96934.02;;;0.40;73.48
72118;BME280;59992;47.490;8.736;2023-03-01T03:00:13;96928.77;;;0.41;73.47
72118;BME280;59992;47.490;8.736;2023-03-01T03:02:49;96924.52;;;0.43;73.55
72118;BME280;59992;47.490;8.736;2023-03-01T03:05:21;96922.80;;;0.46;73.39
72118;BME280;59992;47.490;8.736;2023-03-01T03:07:51;96924.59;;;0.48;73.45
72118;BME280;59992;47.490;8.736;2023-03-01T03:10:23;96920.89;;;0.51;73.65
72118;BME280;59992;47.490;8.736;2023-03-01T03:12:55;96915.45;;;0.54;73.50
72118;BME280;59992;47.490;8.736;2023-03-01T03:15:26;96912.81;;;0.57;73.49
72118;BME280;59992;47.490;8.736;2023-03-01T03:17:58;96912.20;;;0.59;73.52
72118;BME280;59992;47.490;8.736;2023-03-01T03:20:29;96906.41;;;0.59;73.41
72118;BME280;59992;47.490;8.736;2023-03-01T03:23:00;96910.07;;;0.62;73.41
72118;BME280;59992;47.490;8.736;2023-03-01T03:25:30;96902.27;;;0.62;73.36
72118;BME280;59992;47.490;8.736;2023-03-01T03:28:00;96900.34;;;0.63;73.32
72118;BME280;59992;47.490;8.736;2023-03-01T03:30:31;96903.92;;;0.64;73.29
72118;BME280;59992;47.490;8.736;2023-03-01T03:33:01;96901.23;;;0.65;73.21
72118;BME280;59992;47.490;8.736;2023-03-01T03:35:32;96900.36;;;0.64;73.02
72118;BME280;59992;47.490;8.736;2023-03-01T03:38:07;96907.42;;;0.64;73.07
72118;BME280;59992;47.490;8.736;2023-03-01T03:40:45;96912.06;;;0.64;73.30
72118;BME280;59992;47.490;8.736;2023-03-01T03:43:17;96911.33;;;0.64;73.09
72118;BME280;59992;47.490;8.736;2023-03-01T03:45:48;96911.08;;;0.64;73.26
72118;BME280;59992;47.490;8.736;2023-03-01T03:48:19;96907.30;;;0.64;73.34
72118;BME280;59992;47.490;8.736;2023-03-01T03:50:50;96903.80;;;0.67;73.18
72118;BME280;59992;47.490;8.736;2023-03-01T03:53:22;96904.35;;;0.69;73.22
72118;BME280;59992;47.490;8.736;2023-03-01T03:55:52;96906.79;;;0.70;73.22
72118;BME280;59992;47.490;8.736;2023-03-01T03:58:24;96902.86;;;0.71;73.10
72118;BME280;59992;47.490;8.736;2023-03-01T04:00:55;96898.74;;;0.70;72.85
72118;BME280;59992;47.490;8.736;2023-03-01T04:03:26;96894.59;;;0.69;72.92
72118;BME280;59992;47.490;8.736;2023-03-01T04:05:58;96896.40;;;0.67;72.83
72118;BME280;59992;47.490;8.736;2023-03-01T04:08:28;96895.43;;;0.66;72.99
72118;BME280;59992;47.490;8.736;2023-03-01T04:11:01;96900.19;;;0.65;72.86
72118;BME280;59992;47.490;8.736;2023-03-01T04:13:54;96898.64;;;0.64;72.94
72118;BME280;59992;47.490;8.736;2023-03-01T04:16:24;96892.29;;;0.64;73.04
72118;BME280;59992;47.490;8.736;2023-03-01T04:18:54;96888.26;;;0.65;73.05
72118;BME280;59992;47.490;8.736;2023-03-01T04:21:24;96892.63;;;0.67;73.22
72118;BME280;59992;47.490;8.736;2023-03-01T04:23:54;96890.52;;;0.69;73.14
72118;BME280;59992;47.490;8.736;2023-03-01T04:26:23;96893.83;;;0.71;73.19
72118;BME280;59992;47.490;8.736;2023-03-01T04:28:53;96887.70;;;0.73;73.29
72118;BME280;59992;47.490;8.736;2023-03-01T04:31:22;96884.89;;;0.75;73.14
72118;BME280;59992;47.490;8.736;2023-03-01T04:33:53;96881.20;;;0.76;73.04
72118;BME280;59992;47.490;8.736;2023-03-01T04:36:25;96883.33;;;0.77;72.98
72118;BME280;59992;47.490;8.736;2023-03-01T04:38:55;96883.27;;;0.75;73.14
72118;BME280;59992;47.490;8.736;2023-03-01T04:41:26;96883.59;;;0.75;73.08
72118;BME280;59992;47.490;8.736;2023-03-01T04:43:55;96883.55;;;0.74;73.42
72118;BME280;59992;47.490;8.736;2023-03-01T04:46:25;96880.92;;;0.75;73.34
72118;BME280;59992;47.490;8.736;2023-03-01T04:48:54;96880.80;;;0.77;73.25
72118;BME280;59992;47.490;8.736;2023-03-01T04:51:24;96879.96;;;0.78;73.24
72118;BME280;59992;47.490;8.736;2023-03-01T04:53:54;96877.52;;;0.80;73.61
72118;BME280;59992;47.490;8.736;2023-03-01T04:56:24;96877.50;;;0.82;73.51
72118;BME280;59992;47.490;8.736;2023-03-01T04:58:55;96875.86;;;0.83;73.37
72118;BME280;59992;47.490;8.736;2023-03-01T05:01:26;96875.83;;;0.85;73.36
72118;BME280;59992;47.490;8.736;2023-03-01T05:03:56;96875.07;;;0.86;73.38
72118;BME280;59992;47.490;8.736;2023-03-01T05:06:31;96874.83;;;0.88;73.25
72118;BME280;59992;47.490;8.736;2023-03-01T05:09:01;96875.40;;;0.88;73.43
72118;BME280;59992;47.490;8.736;2023-03-01T05:11:31;96872.42;;;0.88;73.26
72118;BME280;59992;47.490;8.736;2023-03-01T05:14:04;96872.82;;;0.86;73.15
72118;BME280;59992;47.490;8.736;2023-03-01T05:16:35;96870.22;;;0.86;73.30
72118;BME280;59992;47.490;8.736;2023-03-01T05:19:05;96865.99;;;0.87;73.35
72118;BME280;59992;47.490;8.736;2023-03-01T05:21:42;96866.60;;;0.87;73.37
72118;BME280;59992;47.490;8.736;2023-03-01T05:24:26;96868.36;;;0.85;73.41
72118;BME280;59992;47.490;8.736;2023-03-01T05:26:57;96861.25;;;0.86;73.35
72118;BME280;59992;47.490;8.736;2023-03-01T05:29:28;96859.09;;;0.87;73.36
72118;BME280;59992;47.490;8.736;2023-03-01T05:32:00;96859.48;;;0.88;73.54
72118;BME280;59992;47.490;8.736;2023-03-01T05:34:32;96861.73;;;0.88;73.75
72118;BME280;59992;47.490;8.736;2023-03-01T05:37:02;96857.79;;;0.89;73.73
72118;BME280;59992;47.490;8.736;2023-03-01T05:39:34;96857.84;;;0.89;73.53
72118;BME280;59992;47.490;8.736;2023-03-01T05:42:04;96853.81;;;0.88;73.62
72118;BME280;59992;47.490;8.736;2023-03-01T05:44:34;96852.59;;;0.86;73.65
72118;BME280;59992;47.490;8.736;2023-03-01T05:47:05;96845.34;;;0.84;73.45
72118;BME280;59992;47.490;8.736;2023-03-01T05:49:34;96842.31;;;0.83;73.57
72118;BME280;59992;47.490;8.736;2023-03-01T05:52:04;96843.05;;;0.83;73.56
72118;BME280;59992;47.490;8.736;2023-03-01T05:54:34;96840.84;;;0.81;73.72
72118;BME280;59992;47.490;8.736;2023-03-01T05:57:04;96837.85;;;0.82;73.51
72118;BME280;59992;47.490;8.736;2023-03-01T05:59:34;96827.88;;;0.82;73.55
72118;BME280;59992;47.490;8.736;2023-03-01T06:02:05;96828.10;;;0.84;73.62
72118;BME280;59992;47.490;8.736;2023-03-01T06:04:34;96828.44;;;0.83;73.57
72118;BME280;59992;47.490;8.736;2023-03-01T06:07:04;96830.39;;;0.84;73.56
72118;BME280;59992;47.490;8.736;2023-03-01T06:09:33;96829.19;;;0.84;73.64
72118;BME280;59992;47.490;8.736;2023-03-01T06:12:06;96827.38;;;0.84;73.38
72118;BME280;59992;47.490;8.736;2023-03-01T06:14:36;96827.65;;;0.85;73.58
72118;BME280;59992;47.490;8.736;2023-03-01T06:17:06;96825.98;;;0.86;73.36
72118;BME280;59992;47.490;8.736;2023-03-01T06:19:35;96823.13;;;0.87;73.38
72118;BME280;59992;47.490;8.736;2023-03-01T06:22:05;96822.80;;;0.87;73.55
72118;BME280;59992;47.490;8.736;2023-03-01T06:24:35;96822.61;;;0.87;73.81
72118;BME280;59992;47.490;8.736;2023-03-01T06:27:06;96823.77;;;0.89;73.74
72118;BME280;59992;47.490;8.736;2023-03-01T06:29:36;96825.45;;;0.88;73.75
72118;BME280;59992;47.490;8.736;2023-03-01T06:32:06;96825.52;;;0.90;73.68
72118;BME280;59992;47.490;8.736;2023-03-01T06:34:37;96826.63;;;0.89;73.85
72118;BME280;59992;47.490;8.736;2023-03-01T06:37:08;96824.83;;;0.88;73.80
72118;BME280;59992;47.490;8.736;2023-03-01T06:39:38;96823.48;;;0.88;73.86
72118;BME280;59992;47.490;8.736;2023-03-01T06:42:08;96822.50;;;0.85;73.94
72118;BME280;59992;47.490;8.736;2023-03-01T06:44:39;96831.23;;;0.91;74.00
72118;BME280;59992;47.490;8.736;2023-03-01T06:47:09;96829.23;;;0.92;74.09
72118;BME280;59992;47.490;8.736;2023-03-01T06:49:39;96833.61;;;0.92;73.91
72118;BME280;59992;47.490;8.736;2023-03-01T06:52:09;96834.73;;;0.91;74.00
72118;BME280;59992;47.490;8.736;2023-03-01T06:54:38;96830.67;;;0.88;74.06
72118;BME280;59992;47.490;8.736;2023-03-01T06:57:08;96829.66;;;0.89;74.06
72118;BME280;59992;47.490;8.736;2023-03-01T06:59:39;96827.48;;;0.89;74.04
72118;BME280;59992;47.490;8.736;2023-03-01T07:02:11;96822.62;;;0.84;73.97
72118;BME280;59992;47.490;8.736;2023-03-01T07:04:56;96831.59;;;0.89;74.02
72118;BME280;59992;47.490;8.736;2023-03-01T07:08:10;96832.46;;;0.90;74.17
72118;BME280;59992;47.490;8.736;2023-03-01T07:10:40;96836.54;;;0.92;74.04
72118;BME280;59992;47.490;8.736;2023-03-01T07:13:10;96842.45;;;0.91;74.28
72118;BME280;59992;47.490;8.736;2023-03-01T07:15:41;96838.88;;;0.93;74.33
72118;BME280;59992;47.490;8.736;2023-03-01T07:18:10;96832.92;;;0.93;74.26
72118;BME280;59992;47.490;8.736;2023-03-01T07:20:40;96833.59;;;0.94;74.07
72118;BME280;59992;47.490;8.736;2023-03-01T07:23:10;96834.50;;;0.93;74.11
72118;BME280;59992;47.490;8.736;2023-03-01T07:25:40;96833.43;;;0.94;73.99
72118;BME280;59992;47.490;8.736;2023-03-01T07:28:10;96829.35;;;0.97;74.06
72118;BME280;59992;47.490;8.736;2023-03-01T07:30:39;96827.05;;;0.98;74.09
72118;BME280;59992;47.490;8.736;2023-03-01T07:33:08;96824.74;;;0.98;74.15
72118;BME280;59992;47.490;8.736;2023-03-01T07:35:38;96828.37;;;1.00;74.12
72118;BME280;59992;47.490;8.736;2023-03-01T07:38:08;96826.27;;;1.01;73.98
72118;BME280;59992;47.490;8.736;2023-03-01T07:40:37;96829.15;;;0.93;74.20
72118;BME280;59992;47.490;8.736;2023-03-01T07:43:07;96829.86;;;0.95;74.16
72118;BME280;59992;47.490;8.736;2023-03-01T07:45:37;96830.25;;;0.96;74.23
72118;BME280;59992;47.490;8.736;2023-03-01T07:48:06;96831.58;;;0.98;74.22
72118;BME280;59992;47.490;8.736;2023-03-01T07:50:36;96829.00;;;0.99;74.21
72118;BME280;59992;47.490;8.736;2023-03-01T07:53:06;96830.92;;;0.97;74.18
72118;BME280;59992;47.490;8.736;2023-03-01T07:55:36;96823.55;;;1.00;74.18
72118;BME280;59992;47.490;8.736;2023-03-01T07:58:05;96815.95;;;1.02;74.06
72118;BME280;59992;47.490;8.736;2023-03-01T08:00:35;96819.13;;;1.04;74.06
72118;BME280;59992;47.490;8.736;2023-03-01T08:03:05;96820.14;;;1.04;74.11
72118;BME280;59992;47.490;8.736;2023-03-01T08:05:35;96820.95;;;1.07;73.94
72118;BME280;59992;47.490;8.736;2023-03-01T08:08:05;96819.82;;;1.06;74.04
72118;BME280;59992;47.490;8.736;2023-03-01T08:10:35;96817.73;;;1.09;74.02
72118;BME280;59992;47.490;8.736;2023-03-01T08:13:05;96816.17;;;1.11;74.00
72118;BME280;59992;47.490;8.736;2023-03-01T08:15:36;96818.81;;;1.12;73.90
72118;BME280;59992;47.490;8.736;2023-03-01T08:18:05;96817.94;;;1.14;73.91
72118;BME280;59992;47.490;8.736;2023-03-01T08:20:35;96813.85;;;1.17;73.81
72118;BME280;59992;47.490;8.736;2023-03-01T08:23:04;96816.77;;;1.19;73.63
72118;BME280;59992;47.490;8.736;2023-03-01T08:25:34;96815.52;;;1.22;73.72
72118;BME280;59992;47.490;8.736;2023-03-01T08:28:04;96813.04;;;1.26;73.63
72118;BME280;59992;47.490;8.736;2023-03-01T08:30:35;96806.49;;;1.29;73.55
72118;BME280;59992;47.490;8.736;2023-03-01T08:33:05;96805.13;;;1.31;73.59
72118;BME280;59992;47.490;8.736;2023-03-01T08:35:35;96806.20;;;1.36;73.43
72118;BME280;59992;47.490;8.736;2023-03-01T08:38:05;96801.95;;;1.36;73.36
72118;BME280;59992;47.490;8.736;2023-03-01T08:40:35;96801.44;;;1.35;73.34
72118;BME280;59992;47.490;8.736;2023-03-01T08:43:04;96800.54;;;1.34;73.53
72118;BME280;59992;47.490;8.736;2023-03-01T08:45:36;96801.84;;;1.34;73.27
72118;BME280;59992;47.490;8.736;2023-03-01T08:48:06;96795.76;;;1.35;73.30
72118;BME280;59992;47.490;8.736;2023-03-01T08:50:36;96798.38;;;1.32;73.10
72118;BME280;59992;47.490;8.736;2023-03-01T08:53:06;96798.51;;;1.33;73.33
72118;BME280;59992;47.490;8.736;2023-03-01T08:55:36;96798.52;;;1.35;73.46
72118;BME280;59992;47.490;8.736;2023-03-01T08:58:05;96803.45;;;1.36;73.26
72118;BME280;59992;47.490;8.736;2023-03-01T09:00:34;96799.91;;;1.36;73.18
72118;BME280;59992;47.490;8.736;2023-03-01T09:03:05;96801.83;;;1.34;73.30
72118;BME280;59992;47.490;8.736;2023-03-01T09:05:35;96799.95;;;1.35;73.06
72118;BME280;59992;47.490;8.736;2023-03-01T09:08:06;96798.55;;;1.36;73.18
72118;BME280;59992;47.490;8.736;2023-03-01T09:10:39;96799.52;;;1.37;73.20
72118;BME280;59992;47.490;8.736;2023-03-01T09:13:09;96799.85;;;1.39;73.34
72118;BME280;59992;47.490;8.736;2023-03-01T09:15:40;96792.13;;;1.41;73.46
72118;BME280;59992;47.490;8.736;2023-03-01T09:18:09;96788.00;;;1.45;73.32
72118;BME280;59992;47.490;8.736;2023-03-01T09:20:39;96787.02;;;1.49;73.19
72118;BME280;59992;47.490;8.736;2023-03-01T09:23:09;96779.24;;;1.52;73.17
72118;BME280;59992;47.490;8.736;2023-03-01T09:25:39;96779.39;;;1.51;72.70
72118;BME280;59992;47.490;8.736;2023-03-01T09:28:09;96778.48;;;1.53;72.74
72118;BME280;59992;47.490;8.736;2023-03-01T09:30:39;96779.27;;;1.52;72.84
72118;BME280;59992;47.490;8.736;2023-03-01T09:33:08;96778.77;;;1.54;72.96
72118;BME280;59992;47.490;8.736;2023-03-01T09:35:42;96781.73;;;1.53;72.93
72118;BME280;59992;47.490;8.736;2023-03-01T09:38:16;96776.48;;;1.53;72.71
72118;BME280;59992;47.490;8.736;2023-03-01T09:40:46;96785.65;;;1.54;72.75
72118;BME280;59992;47.490;8.736;2023-03-01T09:43:23;96787.58;;;1.52;72.53
72118;BME280;59992;47.490;8.736;2023-03-01T09:45:58;96786.48;;;1.54;72.68
72118;BME280;59992;47.490;8.736;2023-03-01T09:48:33;96789.66;;;1.59;72.78
72118;BME280;59992;47.490;8.736;2023-03-01T09:51:12;96788.81;;;1.64;72.79
72118;BME280;59992;47.490;8.736;2023-03-01T09:53:43;96780.52;;;1.68;72.61
72118;BME280;59992;47.490;8.736;2023-03-01T09:56:19;96776.91;;;1.70;72.33
72118;BME280;59992;47.490;8.736;2023-03-01T09:58:57;96776.62;;;1.69;72.25
72118;BME280;59992;47.490;8.736;2023-03-01T10:01:36;96775.20;;;1.69;72.26
72118;BME280;59992;47.490;8.736;2023-03-01T10:04:21;96767.24;;;1.70;72.12
72118;BME280;59992;47.490;8.736;2023-03-01T10:07:01;96767.85;;;1.65;72.14
72118;BME280;59992;47.490;8.736;2023-03-01T10:09:38;96762.14;;;1.67;72.27
72118;BME280;59992;47.490;8.736;2023-03-01T10:12:12;96766.54;;;1.67;72.03
72118;BME280;59992;47.490;8.736;2023-03-01T10:14:48;96770.16;;;1.70;72.19
72118;BME280;59992;47.490;8.736;2023-03-01T10:17:27;96768.49;;;1.72;71.90
72118;BME280;59992;47.490;8.736;2023-03-01T10:20:20;96769.13;;;1.74;71.84
72118;BME280;59992;47.490;8.736;2023-03-01T10:22:51;96763.48;;;1.72;71.67
72118;BME280;59992;47.490;8.736;2023-03-01T10:25:40;96758.91;;;1.73;71.77
72118;BME280;59992;47.490;8.736;2023-03-01T10:28:20;96757.05;;;1.73;71.53
72118;BME280;59992;47.490;8.736;2023-03-01T10:30:54;96747.90;;;1.77;71.72
72118;BME280;59992;47.490;8.736;2023-03-01T10:33:28;96745.13;;;1.81;71.94
72118;BME280;59992;47.490;8.736;2023-03-01T10:36:00;96749.04;;;1.87;71.72
72118;BME280;59992;47.490;8.736;2023-03-01T10:38:33;96752.73;;;1.89;71.94
72118;BME280;59992;47.490;8.736;2023-03-01T10:41:17;96746.48;;;1.88;71.22
72118;BME280;59992;47.490;8.736;2023-03-01T10:43:48;96743.51;;;1.90;71.17
72118;BME280;59992;47.490;8.736;2023-03-01T10:46:30;96737.86;;;1.92;71.33
72118;BME280;59992;47.490;8.736;2023-03-01T10:49:15;96739.36;;;1.95;71.13
72118;BME280;59992;47.490;8.736;2023-03-01T10:51:46;96739.09;;;1.97;70.90
72118;BME280;59992;47.490;8.736;2023-03-01T10:54:21;96735.19;;;1.97;70.83
72118;BME280;59992;47.490;8.736;2023-03-01T10:56:53;96738.31;;;2.01;70.89
72118;BME280;59992;47.490;8.736;2023-03-01T10:59:28;96738.45;;;2.05;71.10
72118;BME280;59992;47.490;8.736;2023-03-01T11:02:15;96741.81;;;2.07;70.62
72118;BME280;59992;47.490;8.736;2023-03-01T11:05:00;96741.45;;;2.03;70.01
72118;BME280;59992;47.490;8.736;2023-03-01T11:07:30;96746.14;;;1.99;70.37
72118;BME280;59992;47.490;8.736;2023-03-01T11:10:01;96742.26;;;1.96;70.22
72118;BME280;59992;47.490;8.736;2023-03-01T11:12:40;96741.52;;;1.92;70.01
72118;BME280;59992;47.490;8.736;2023-03-01T11:15:22;96743.31;;;1.95;70.01
72118;BME280;59992;47.490;8.736;2023-03-01T11:17:52;96738.27;;;1.90;69.97
72118;BME280;59992;47.490;8.736;2023-03-01T11:20:29;96736.19;;;1.83;70.23
72118;BME280;59992;47.490;8.736;2023-03-01T11:23:03;96742.23;;;1.80;70.51
72118;BME280;59992;47.490;8.736;2023-03-01T11:25:37;96741.36;;;1.81;70.46
72118;BME280;59992;47.490;8.736;2023-03-01T11:28:10;96737.21;;;1.84;70.47
72118;BME280;59992;47.490;8.736;2023-03-01T11:30:49;96733.45;;;1.87;70.41
72118;BME280;59992;47.490;8.736;2023-03-01T11:33:30;96734.64;;;1.91;70.52
72118;BME280;59992;47.490;8.736;2023-03-01T11:36:07;96729.13;;;1.94;70.34
72118;BME280;59992;47.490;8.736;2023-03-01T11:38:41;96729.31;;;1.95;70.39
72118;BME280;59992;47.490;8.736;2023-03-01T11:41:16;96727.04;;;1.98;70.52
72118;BME280;59992;47.490;8.736;2023-03-01T11:43:50;96719.95;;;2.00;70.29
72118;BME280;59992;47.490;8.736;2023-03-01T11:46:32;96719.09;;;2.02;70.22
72118;BME280;59992;47.490;8.736;2023-03-01T11:49:17;96718.25;;;2.03;70.14
72118;BME280;59992;47.490;8.736;2023-03-01T11:51:58;96716.49;;;2.06;70.25
72118;BME280;59992;47.490;8.736;2023-03-01T11:54:42;96719.31;;;2.10;70.18
72118;BME280;59992;47.490;8.736;2023-03-01T11:57:25;96719.17;;;2.08;69.70
72118;BME280;59992;47.490;8.736;2023-03-01T12:00:12;96719.97;;;2.11;69.79
72118;BME280;59992;47.490;8.736;2023-03-01T12:06:20;96704.84;;;2.05;69.34
72118;BME280;59992;47.490;8.736;2023-03-01T12:09:00;96704.30;;;2.10;69.47
72118;BME280;59992;47.490;8.736;2023-03-01T12:11:41;96697.46;;;2.14;69.58
72118;BME280;59992;47.490;8.736;2023-03-01T12:14:50;96695.61;;;2.12;69.30
72118;BME280;59992;47.490;8.736;2023-03-01T12:17:47;96692.02;;;2.12;69.29
72118;BME280;59992;47.490;8.736;2023-03-01T12:20:29;96687.38;;;2.15;69.59
72118;BME280;59992;47.490;8.736;2023-03-01T12:23:24;96684.38;;;2.18;69.53
72118;BME280;59992;47.490;8.736;2023-03-01T12:26:05;96678.90;;;2.21;69.49
72118;BME280;59992;47.490;8.736;2023-03-01T12:28:47;96677.03;;;2.26;69.62
72118;BME280;59992;47.490;8.736;2023-03-01T12:34:46;96670.90;;;2.28;68.90
72118;BME280;59992;47.490;8.736;2023-03-01T12:37:38;96670.34;;;2.28;68.76
72118;BME280;59992;47.490;8.736;2023-03-01T12:40:26;96666.09;;;2.25;68.60
72118;BME280;59992;47.490;8.736;2023-03-01T12:43:10;96661.38;;;2.23;68.85
72118;BME280;59992;47.490;8.736;2023-03-01T12:46:00;96660.55;;;2.20;68.68
72118;BME280;59992;47.490;8.736;2023-03-01T12:48:40;96660.19;;;2.20;68.73
72118;BME280;59992;47.490;8.736;2023-03-01T12:51:16;96657.36;;;2.20;68.87
72118;BME280;59992;47.490;8.736;2023-03-01T12:53:49;96658.14;;;2.23;68.79
72118;BME280;59992;47.490;8.736;2023-03-01T12:56:22;96658.30;;;2.24;68.51
72118;BME280;59992;47.490;8.736;2023-03-01T12:59:01;96662.54;;;2.21;68.63
72118;BME280;59992;47.490;8.736;2023-03-01T13:01:39;96665.50;;;2.20;68.37
72118;BME280;59992;47.490;8.736;2023-03-01T13:04:25;96659.95;;;2.16;68.51
72118;BME280;59992;47.490;8.736;2023-03-01T13:07:15;96660.81;;;2.19;68.76
72118;BME280;59992;47.490;8.736;2023-03-01T13:09:54;96664.77;;;2.17;68.69
72118;BME280;59992;47.490;8.736;2023-03-01T13:12:52;96664.80;;;2.20;68.71
72118;BME280;59992;47.490;8.736;2023-03-01T13:15:30;96658.16;;;2.18;68.51
72118;BME280;59992;47.490;8.736;2023-03-01T13:18:04;96652.89;;;2.16;68.36
72118;BME280;59992;47.490;8.736;2023-03-01T13:20:48;96654.48;;;2.16;68.42
72118;BME280;59992;47.490;8.736;2023-03-01T13:23:28;96655.55;;;2.18;68.56
72118;BME280;59992;47.490;8.736;2023-03-01T13:26:16;96654.66;;;2.22;68.72
72118;BME280;59992;47.490;8.736;2023-03-01T13:28:53;96655.96;;;2.24;68.32
72118;BME280;59992;47.490;8.736;2023-03-01T13:34:46;96648.89;;;2.28;68.69
72118;BME280;59992;47.490;8.736;2023-03-01T13:37:31;96648.75;;;2.30;68.26
72118;BME280;59992;47.490;8.736;2023-03-01T13:43:34;96658.77;;;2.28;67.81
72118;BME280;59992;47.490;8.736;2023-03-01T13:46:09;96660.13;;;2.28;67.92
72118;BME280;59992;47.490;8.736;2023-03-01T13:48:41;96661.10;;;2.25;67.59
72118;BME280;59992;47.490;8.736;2023-03-01T13:51:13;96666.45;;;2.23;67.36
72118;BME280;59992;47.490;8.736;2023-03-01T13:53:45;96673.01;;;2.16;67.21
72118;BME280;59992;47.490;8.736;2023-03-01T13:56:17;96672.72;;;2.12;67.63